Time;durP1;ratioP1;P1;durP2;ratioP2;P2;SDS_P1;SDS_P2;PMS_P1;PMS_P2;Temp;Humidity;BMP_temperature;BMP_pressure;BME280_temperature;BME280_humidity;BME280_pressure;Samples;Min_cycle;Max_cycle;Signal;HPM_P1;HPM_P2
2021/06/03 00:00:11;;;;;;;6.07;4.03;;;;;;;17.04;41.20;101656.19;5006448;28;20077;-72
2021/06/03 00:02:37;;;;;;;7.03;3.97;;;;;;;17.01;41.07;101654.56;5003590;28;20034;-71
2021/06/03 00:05:05;;;;;;;5.68;3.22;;;;;;;17.07;40.99;101653.38;5004990;28;20505;-69
2021/06/03 00:07:31;;;;;;;6.55;3.53;;;;;;;16.89;41.52;101657.00;5004489;28;20553;-68
2021/06/03 00:09:56;;;;;;;9.75;3.95;;;;;;;16.95;41.42;101649.63;5005902;28;20115;-69
2021/06/03 00:12:22;;;;;;;4.20;3.05;;;;;;;16.83;41.58;101660.84;5005176;28;20038;-68
2021/06/03 00:14:47;;;;;;;7.22;3.40;;;;;;;16.98;41.03;101657.38;5005306;28;20130;-67
2021/06/03 00:17:13;;;;;;;5.30;3.45;;;;;;;16.96;41.21;101655.78;5003828;28;20041;-68
2021/06/03 00:19:38;;;;;;;8.98;3.63;;;;;;;16.68;41.56;101653.72;5003609;28;20121;-67
2021/06/03 00:22:04;;;;;;;5.93;3.42;;;;;;;16.85;41.11;101652.88;5006250;28;20038;-66
2021/06/03 00:24:30;;;;;;;7.55;3.70;;;;;;;16.96;41.06;101658.41;5007342;28;20038;-67
2021/06/03 00:26:55;;;;;;;7.28;4.10;;;;;;;16.85;41.05;101650.22;5009529;28;20064;-70
2021/06/03 00:29:21;;;;;;;4.70;4.22;;;;;;;16.76;41.39;101652.41;5006783;28;20038;-70
2021/06/03 00:31:47;;;;;;;5.72;4.35;;;;;;;16.54;41.58;101644.75;5008877;28;20069;-69
2021/06/03 00:34:12;;;;;;;4.07;3.47;;;;;;;16.79;41.07;101646.13;5011566;28;20045;-69
2021/06/03 00:36:38;;;;;;;4.43;3.58;;;;;;;16.71;41.54;101646.50;5008135;28;20040;-72
2021/06/03 00:39:05;;;;;;;6.40;3.75;;;;;;;16.69;41.29;101642.22;5007739;28;20037;-70
2021/06/03 00:41:30;;;;;;;4.65;3.53;;;;;;;16.58;41.56;101648.09;5008042;28;20025;-69
2021/06/03 00:43:58;;;;;;;6.00;3.72;;;;;;;16.58;41.46;101645.47;5008024;28;20046;-69
2021/06/03 00:46:24;;;;;;;6.53;3.35;;;;;;;16.52;41.71;101643.16;5008890;28;20064;-70
2021/06/03 00:48:49;;;;;;;4.78;2.63;;;;;;;16.54;41.63;101647.41;5008056;28;20526;-70
2021/06/03 00:51:14;;;;;;;3.75;3.22;;;;;;;16.55;41.52;101645.59;5007259;28;20033;-69
2021/06/03 00:53:43;;;;;;;4.38;3.40;;;;;;;16.55;41.50;101648.25;5007827;28;20514;-70
2021/06/03 00:56:09;;;;;;;7.82;3.30;;;;;;;16.51;41.47;101644.06;5000714;28;20034;-70
2021/06/03 00:58:35;;;;;;;6.75;3.75;;;;;;;16.47;41.48;101643.38;5009173;28;20040;-69
2021/06/03 01:01:02;;;;;;;5.53;3.33;;;;;;;16.30;42.01;101643.41;5008171;28;20099;-70
2021/06/03 01:03:28;;;;;;;7.75;3.47;;;;;;;16.26;42.04;101639.22;5010377;28;20037;-70
2021/06/03 01:06:00;;;;;;;3.72;2.95;;;;;;;16.41;41.76;101643.72;5007001;28;20030;-69
2021/06/03 01:08:33;;;;;;;3.30;2.83;;;;;;;16.39;41.52;101645.56;5008899;28;20491;-70
2021/06/03 01:11:12;;;;;;;4.93;3.53;;;;;;;16.33;41.83;101638.84;5023425;28;20026;-69
2021/06/03 01:13:57;;;;;;;4.40;3.80;;;;;;;16.28;41.84;101642.63;4982541;28;20038;-69
2021/06/03 01:16:27;;;;;;;5.40;3.28;;;;;;;16.21;42.14;101642.94;5008378;28;20025;-69
2021/06/03 01:18:55;;;;;;;5.35;3.72;;;;;;;16.25;41.79;101634.91;5002825;28;20052;-69
2021/06/03 01:21:34;;;;;;;5.28;2.75;;;;;;;16.19;42.18;101633.41;5023796;28;20496;-70
2021/06/03 01:24:23;;;;;;;7.57;3.20;;;;;;;16.09;42.36;101637.47;5008764;28;20119;-69
2021/06/03 01:26:53;;;;;;;3.65;3.08;;;;;;;16.06;42.39;101637.63;5000201;28;20018;-69
2021/06/03 01:29:19;;;;;;;5.60;3.33;;;;;;;15.97;42.70;101639.78;5005896;28;20050;-71
2021/06/03 01:31:51;;;;;;;5.90;3.13;;;;;;;15.92;42.71;101636.50;5007078;28;20037;-71
2021/06/03 01:34:22;;;;;;;9.35;3.08;;;;;;;15.79;42.81;101638.94;5005994;28;20037;-72
2021/06/03 01:36:49;;;;;;;4.72;3.65;;;;;;;15.96;42.53;101640.69;5007027;28;20042;-71
2021/06/03 01:39:15;;;;;;;4.10;3.45;;;;;;;15.84;42.62;101638.69;5001691;28;20494;-71
2021/06/03 01:41:41;;;;;;;4.63;3.33;;;;;;;15.77;42.89;101639.91;5006273;28;20041;-71
2021/06/03 01:44:10;;;;;;;4.95;2.97;;;;;;;15.68;42.89;101640.38;5022745;28;20092;-71
2021/06/03 01:46:37;;;;;;;6.38;3.42;;;;;;;15.64;43.09;101641.44;5022493;28;20275;-71
2021/06/03 01:49:04;;;;;;;5.03;3.33;;;;;;;15.72;43.13;101634.03;5006302;28;20502;-72
2021/06/03 01:51:30;;;;;;;4.22;3.10;;;;;;;15.72;42.84;101632.22;5011623;28;20026;-69
2021/06/03 01:53:56;;;;;;;4.50;3.55;;;;;;;15.73;42.91;101633.94;5006367;28;20036;-68
2021/06/03 01:56:22;;;;;;;5.75;3.38;;;;;;;15.52;43.50;101632.38;4995566;28;20037;-68
2021/06/03 01:58:48;;;;;;;8.60;3.40;;;;;;;15.53;43.46;101640.22;5012417;28;20379;-69
2021/06/03 02:01:15;;;;;;;4.07;3.63;;;;;;;15.51;43.69;101635.94;5006621;28;20022;-69
2021/06/03 02:03:41;;;;;;;4.05;3.38;;;;;;;15.50;43.50;101637.69;4989229;28;20143;-69
2021/06/03 02:06:08;;;;;;;4.80;4.22;;;;;;;15.45;43.71;101637.09;5008644;28;20033;-71
2021/06/03 02:08:33;;;;;;;4.00;2.78;;;;;;;15.54;43.29;101634.00;5007734;28;20041;-70
2021/06/03 02:11:08;;;;;;;7.97;3.38;;;;;;;15.53;43.13;101634.94;5005464;28;20376;-68
2021/06/03 02:13:44;;;;;;;4.35;3.10;;;;;;;15.45;43.63;101642.34;5006266;28;20040;-68
2021/06/03 02:16:31;;;;;;;5.30;3.35;;;;;;;15.51;43.35;101638.56;5004020;28;20068;-67
2021/06/03 02:19:02;;;;;;;5.10;3.40;;;;;;;15.36;43.62;101638.38;5010040;28;20295;-68
2021/06/03 02:21:36;;;;;;;4.13;3.40;;;;;;;15.28;43.72;101645.81;5000891;28;20068;-68
2021/06/03 02:24:05;;;;;;;4.47;3.05;;;;;;;15.41;43.62;101643.41;5007491;28;20042;-68
2021/06/03 02:26:39;;;;;;;8.32;3.33;;;;;;;15.43;43.57;101638.94;4995959;28;20034;-68
2021/06/03 02:29:11;;;;;;;3.55;3.22;;;;;;;15.26;43.90;101636.25;5001795;28;20025;-69
2021/06/03 02:31:40;;;;;;;11.02;4.32;;;;;;;15.24;44.40;101638.09;4995847;28;20139;-70
2021/06/03 02:34:06;;;;;;;3.55;2.80;;;;;;;15.18;44.39;101640.06;5007023;28;20032;-70
2021/06/03 02:36:33;;;;;;;4.57;3.30;;;;;;;15.26;43.98;101646.78;5005137;28;20576;-71
2021/06/03 02:39:00;;;;;;;4.05;3.50;;;;;;;15.32;43.80;101651.78;5007768;28;20461;-70
2021/06/03 02:41:28;;;;;;;4.20;3.20;;;;;;;15.34;43.86;101644.66;4998930;28;20026;-70
2021/06/03 02:43:54;;;;;;;4.78;3.65;;;;;;;15.30;43.94;101646.56;5007330;28;20136;-70
2021/06/03 02:46:22;;;;;;;5.18;3.72;;;;;;;15.28;43.92;101648.44;5004898;28;20038;-70
2021/06/03 02:48:51;;;;;;;6.10;3.45;;;;;;;15.33;43.60;101642.97;5004652;28;20192;-70
2021/06/03 02:51:18;;;;;;;6.43;4.07;;;;;;;15.25;43.74;101655.63;5004514;28;21240;-70
2021/06/03 02:53:47;;;;;;;4.45;3.65;;;;;;;15.24;43.78;101648.63;5005261;28;20559;-70
2021/06/03 02:56:19;;;;;;;4.85;4.35;;;;;;;15.17;43.76;101654.19;5020842;28;20038;-71
2021/06/03 02:58:47;;;;;;;5.47;3.20;;;;;;;15.19;44.08;101656.72;4995777;28;20143;-69
2021/06/03 03:01:13;;;;;;;3.88;3.47;;;;;;;15.17;43.82;101654.19;5006819;28;20038;-69
2021/06/03 03:03:40;;;;;;;6.10;3.90;;;;;;;15.25;43.78;101655.63;5006234;28;20590;-70
2021/06/03 03:06:07;;;;;;;4.68;4.18;;;;;;;15.26;43.47;101657.31;5006283;28;20049;-69
2021/06/03 03:08:33;;;;;;;3.88;3.50;;;;;;;15.17;44.09;101654.19;5004933;28;20038;-70
2021/06/03 03:11:00;;;;;;;3.20;2.90;;;;;;;15.22;43.63;101651.38;4979889;28;20147;-69
2021/06/03 03:13:32;;;;;;;6.43;3.20;;;;;;;15.14;44.02;101658.72;5021404;28;20117;-70
2021/06/03 03:15:58;;;;;;;5.03;3.47;;;;;;;15.12;43.83;101666.69;5006769;28;20034;-70
2021/06/03 03:18:25;;;;;;;3.45;3.15;;;;;;;14.96;44.38;101666.56;4999770;28;20076;-68
2021/06/03 03:20:52;;;;;;;3.92;3.53;;;;;;;15.02;44.02;101661.94;5005050;28;20175;-69
2021/06/03 03:23:18;;;;;;;5.43;3.28;;;;;;;15.09;43.81;101663.38;5005144;28;20570;-66
2021/06/03 03:25:48;;;;;;;4.45;3.08;;;;;;;15.07;44.29;101668.69;5003528;28;20105;-70
2021/06/03 03:28:14;;;;;;;6.50;3.13;;;;;;;14.98;44.44;101663.84;5003064;28;20026;-69
2021/06/03 03:30:41;;;;;;;5.25;3.47;;;;;;;15.05;44.21;101667.91;5004621;28;20030;-69
2021/06/03 03:33:11;;;;;;;4.15;3.75;;;;;;;14.99;44.15;101668.19;5004034;28;20041;-70
2021/06/03 03:35:37;;;;;;;6.68;3.85;;;;;;;15.01;43.99;101668.13;5006114;28;20056;-69
2021/06/03 03:38:03;;;;;;;3.88;3.45;;;;;;;15.05;43.90;101669.69;5005789;28;20447;-69
2021/06/03 03:40:30;;;;;;;7.28;3.65;;;;;;;14.97;44.12;101667.44;5005916;28;20446;-69
2021/06/03 03:42:56;;;;;;;5.13;4.07;;;;;;;15.00;44.22;101672.53;5004397;28;20026;-69
2021/06/03 03:45:24;;;;;;;3.90;2.72;;;;;;;15.04;44.04;101668.00;5002728;28;20071;-69
2021/06/03 03:47:51;;;;;;;5.45;3.13;;;;;;;15.07;44.27;101668.69;5005880;28;20034;-67
2021/06/03 03:50:19;;;;;;;6.25;3.83;;;;;;;15.10;44.12;101670.31;4998937;28;20066;-67
2021/06/03 03:52:45;;;;;;;3.22;2.92;;;;;;;15.11;44.01;101674.69;5004191;28;20034;-68
2021/06/03 03:55:13;;;;;;;7.50;4.40;;;;;;;15.11;44.00;101675.53;5020144;28;20072;-67
2021/06/03 03:57:39;;;;;;;5.20;3.17;;;;;;;15.13;43.86;101668.41;5007878;28;20061;-68
2021/06/03 04:00:08;;;;;;;4.45;3.75;;;;;;;15.13;44.04;101678.94;5007417;28;20127;-68
2021/06/03 04:02:42;;;;;;;4.35;2.78;;;;;;;15.23;43.79;101668.00;5006491;28;20116;-68
2021/06/03 04:05:09;;;;;;;4.20;3.80;;;;;;;15.32;43.70;101672.84;5003731;28;20088;-67
2021/06/03 04:07:37;;;;;;;4.05;3.72;;;;;;;15.42;43.43;101674.13;5008164;28;20037;-68
2021/06/03 04:10:07;;;;;;;7.28;3.35;;;;;;;15.46;43.40;101673.06;5023959;28;20029;-69
2021/06/03 04:12:33;;;;;;;5.10;3.58;;;;;;;15.49;43.09;101675.53;5006078;28;20180;-69
2021/06/03 04:15:03;;;;;;;3.88;3.45;;;;;;;15.55;43.02;101675.25;5009101;28;20030;-69
2021/06/03 04:17:29;;;;;;;3.20;2.80;;;;;;;15.61;43.17;101673.22;5002341;28;20026;-68
2021/06/03 04:19:54;;;;;;;5.60;3.00;;;;;;;15.77;42.54;101668.91;5007788;28;20560;-67
2021/06/03 04:22:21;;;;;;;4.57;3.17;;;;;;;15.90;42.37;101674.41;5008691;28;20513;-68
2021/06/03 04:24:47;;;;;;;3.90;2.90;;;;;;;15.89;42.40;101683.28;5008529;28;20503;-67
2021/06/03 04:27:12;;;;;;;7.10;3.70;;;;;;;15.80;42.45;101688.06;5007389;28;20057;-68
2021/06/03 04:29:38;;;;;;;3.13;2.83;;;;;;;16.12;41.96;101684.78;5007851;28;20037;-68
2021/06/03 04:32:05;;;;;;;5.25;3.75;;;;;;;15.89;42.35;101689.38;5012538;28;20026;-68
2021/06/03 04:34:31;;;;;;;4.05;3.05;;;;;;;16.26;41.64;101687.56;5007564;28;20470;-69
2021/06/03 04:36:56;;;;;;;6.03;4.20;;;;;;;16.37;41.53;101690.50;5008942;28;20108;-68
2021/06/03 04:39:22;;;;;;;3.95;3.55;;;;;;;16.28;41.83;101690.97;5001387;28;20038;-68
2021/06/03 04:41:47;;;;;;;5.65;3.70;;;;;;;16.60;41.47;101686.66;5009939;28;20037;-67
2021/06/03 04:44:13;;;;;;;5.05;4.55;;;;;;;16.77;40.65;101691.06;5006475;28;20073;-67
2021/06/03 04:46:38;;;;;;;9.15;5.97;;;;;;;16.85;40.74;101695.09;5007943;28;20034;-68
2021/06/03 04:49:04;;;;;;;6.03;3.33;;;;;;;16.95;40.31;101701.59;5008591;28;20034;-67
2021/06/03 04:51:29;;;;;;;11.98;6.57;;;;;;;17.10;40.33;101692.81;5007201;28;20407;-71
2021/06/03 04:53:55;;;;;;;4.55;3.58;;;;;;;17.20;40.19;101698.44;5008717;28;20101;-70
2021/06/03 04:56:21;;;;;;;4.70;3.47;;;;;;;17.16;40.28;101702.22;5006491;28;20072;-72
2021/06/03 04:58:46;;;;;;;8.10;4.03;;;;;;;17.27;39.80;101701.59;5006355;28;20405;-71
2021/06/03 05:01:12;;;;;;;4.93;3.47;;;;;;;17.96;38.70;101713.56;5008318;28;20041;-72
2021/06/03 05:03:37;;;;;;;8.57;3.55;;;;;;;19.23;35.94;101705.91;5006543;28;20068;-69
2021/06/03 05:06:03;;;;;;;4.13;3.47;;;;;;;20.37;33.98;101708.19;5007921;28;20030;-71
2021/06/03 05:08:28;;;;;;;4.60;2.97;;;;;;;21.20;32.49;101708.56;4992540;28;20461;-70
2021/06/03 05:10:54;;;;;;;5.40;3.00;;;;;;;21.87;31.53;101699.22;5006939;28;20025;-70
2021/06/03 05:13:19;;;;;;;9.77;3.25;;;;;;;22.06;31.01;101699.53;5007078;28;20163;-66
2021/06/03 05:15:45;;;;;;;2.88;2.08;;;;;;;22.11;31.24;101704.53;5008732;28;20088;-68
2021/06/03 05:18:11;;;;;;;7.40;4.18;;;;;;;21.89;31.11;101699.97;5006366;28;20056;-68
2021/06/03 05:20:39;;;;;;;9.02;4.70;;;;;;;23.06;29.52;101704.28;5011500;28;20045;-67
2021/06/03 05:23:04;;;;;;;3.17;2.85;;;;;;;23.79;28.52;101700.09;5007212;28;20029;-69
2021/06/03 05:25:32;;;;;;;3.35;3.00;;;;;;;23.68;28.58;101700.97;5006500;28;20030;-70
2021/06/03 05:27:59;;;;;;;6.20;2.95;;;;;;;23.59;28.85;101709.75;5005798;28;20034;-68
2021/06/03 05:30:25;;;;;;;4.80;2.60;;;;;;;22.34;30.68;101710.78;5008020;28;20030;-68
2021/06/03 05:32:51;;;;;;;2.83;2.55;;;;;;;20.97;32.80;101714.66;5005692;28;20038;-67
2021/06/03 05:35:19;;;;;;;5.32;2.53;;;;;;;19.96;35.13;101719.78;5007709;28;20139;-67
2021/06/03 05:37:46;;;;;;;4.75;2.80;;;;;;;19.21;36.38;101723.69;5012579;28;20250;-67
2021/06/03 05:40:14;;;;;;;3.33;2.83;;;;;;;18.99;36.71;101723.31;4989620;28;20040;-69
2021/06/03 05:42:40;;;;;;;4.50;3.53;;;;;;;18.62;37.66;101723.78;5020630;28;20040;-68
2021/06/03 05:45:08;;;;;;;5.60;3.22;;;;;;;18.65;37.80;101723.59;5008052;28;20033;-67
2021/06/03 05:47:37;;;;;;;5.30;3.40;;;;;;;18.88;38.44;101727.50;5000007;28;20034;-66
2021/06/03 05:50:08;;;;;;;3.90;3.45;;;;;;;19.20;37.73;101732.56;5008016;28;20076;-67
2021/06/03 05:52:35;;;;;;;3.75;3.42;;;;;;;19.18;37.38;101736.28;4998345;28;20029;-67
2021/06/03 05:55:01;;;;;;;6.90;3.45;;;;;;;19.37;37.41;101733.28;5007234;28;20034;-68
2021/06/03 05:57:27;;;;;;;7.50;4.38;;;;;;;19.70;37.07;101730.28;5010262;28;20103;-67
2021/06/03 05:59:52;;;;;;;4.93;3.05;;;;;;;19.74;36.67;101728.31;5007564;28;20484;-68
2021/06/03 06:02:24;;;;;;;4.05;3.35;;;;;;;19.50;36.93;101731.56;5008524;28;20033;-67
2021/06/03 06:07:35;;;;;;;8.60;3.35;;;;;;;20.51;35.66;101738.16;5007204;28;20030;-66
2021/06/03 06:10:00;;;;;;;3.03;2.72;;;;;;;20.46;35.63;101742.06;5007911;28;20500;-67
2021/06/03 06:12:26;;;;;;;6.18;3.03;;;;;;;20.65;35.30;101745.16;5008072;28;20123;-67
2021/06/03 06:14:51;;;;;;;5.38;3.88;;;;;;;20.60;35.95;101746.44;5006960;28;20145;-67
2021/06/03 06:17:17;;;;;;;3.30;2.78;;;;;;;21.53;34.26;101746.97;5008534;28;20034;-67
2021/06/03 06:19:43;;;;;;;7.10;2.97;;;;;;;22.78;32.11;101762.41;4998270;28;20046;-69
2021/06/03 06:22:08;;;;;;;8.65;3.15;;;;;;;23.50;30.95;101756.72;5006794;28;20042;-67
2021/06/03 06:24:34;;;;;;;4.32;2.65;;;;;;;23.92;29.66;101755.97;5008426;28;20045;-70
2021/06/03 06:27:01;;;;;;;6.15;3.42;;;;;;;24.24;29.78;101754.13;4996072;28;20045;-70
2021/06/03 06:29:27;;;;;;;3.33;2.97;;;;;;;24.54;29.05;101749.81;5007485;28;20084;-71
2021/06/03 06:31:52;;;;;;;4.47;2.33;;;;;;;24.45;28.98;101742.59;5007468;28;20025;-68
2021/06/03 06:34:18;;;;;;;4.10;3.15;;;;;;;23.42;31.36;101745.81;5007447;28;20175;-67
2021/06/03 06:36:44;;;;;;;3.58;2.28;;;;;;;22.96;31.41;101761.00;5008180;28;20041;-67
2021/06/03 06:39:10;;;;;;;5.65;2.63;;;;;;;22.84;31.17;101767.28;5010649;28;20042;-66
2021/06/03 06:41:41;;;;;;;3.33;2.63;;;;;;;23.07;30.65;101762.78;5006862;28;20122;-70
2021/06/03 06:44:07;;;;;;;3.20;2.25;;;;;;;23.58;30.81;101762.25;5005529;28;20116;-67
2021/06/03 06:46:33;;;;;;;5.47;2.08;;;;;;;23.86;29.69;101767.19;5007062;28;20048;-67
2021/06/03 06:48:58;;;;;;;6.15;2.65;;;;;;;23.49;30.20;101770.16;5004874;28;20125;-68
2021/06/03 06:51:24;;;;;;;4.82;2.60;;;;;;;23.08;30.94;101766.31;5022659;28;20034;-67
2021/06/03 06:53:49;;;;;;;4.20;2.13;;;;;;;22.53;31.67;101771.44;5005434;28;20533;-68
2021/06/03 06:56:15;;;;;;;2.55;2.08;;;;;;;22.87;31.21;101772.34;4999832;28;20030;-67
2021/06/03 06:58:41;;;;;;;6.05;2.45;;;;;;;22.51;31.03;101771.56;5006443;28;20389;-67
2021/06/03 07:01:06;;;;;;;3.78;2.75;;;;;;;22.63;31.59;101766.25;5006838;28;20530;-66
2021/06/03 07:03:32;;;;;;;3.22;1.77;;;;;;;23.31;30.24;101770.66;5005798;28;20104;-66
2021/06/03 07:05:57;;;;;;;3.20;2.13;;;;;;;23.87;30.37;101777.72;5006086;28;20041;-66
2021/06/03 07:08:23;;;;;;;2.78;1.80;;;;;;;24.50;28.52;101768.91;5006025;28;20036;-67
2021/06/03 07:10:50;;;;;;;3.08;2.05;;;;;;;26.71;26.24;101781.16;5008323;28;20561;-67
2021/06/03 07:13:16;;;;;;;4.30;1.90;;;;;;;29.16;23.19;101771.78;5005832;28;20117;-67
2021/06/03 07:15:41;;;;;;;2.10;1.42;;;;;;;29.16;21.98;101774.50;5004160;28;20068;-68
2021/06/03 07:18:09;;;;;;;3.80;2.05;;;;;;;29.99;21.38;101765.53;5006929;28;20038;-67
2021/06/03 07:20:35;;;;;;;2.63;1.50;;;;;;;27.93;22.97;101773.69;5005096;28;20229;-67
2021/06/03 07:23:05;;;;;;;3.95;1.88;;;;;;;26.09;26.15;101775.34;5003956;28;20516;-67
2021/06/03 07:25:35;;;;;;;4.25;1.52;;;;;;;24.59;27.49;101786.81;5003073;28;20030;-67
2021/06/03 07:28:01;;;;;;;4.38;2.20;;;;;;;23.26;29.43;101788.84;5004817;28;20034;-66
2021/06/03 07:30:27;;;;;;;2.80;2.03;;;;;;;22.79;29.83;101788.13;5004623;28;20029;-68
2021/06/03 07:32:57;;;;;;;2.42;1.30;;;;;;;22.93;30.46;101793.22;5009563;28;20022;-67
2021/06/03 07:35:25;;;;;;;2.85;2.58;;;;;;;22.66;30.38;101792.66;5008664;28;20026;-66
2021/06/03 07:37:52;;;;;;;3.33;2.10;;;;;;;22.35;30.86;101793.19;5010065;28;20034;-67
2021/06/03 07:40:22;;;;;;;3.83;2.17;;;;;;;22.25;32.00;101786.00;5008918;28;20089;-67
2021/06/03 07:42:49;;;;;;;2.53;1.92;;;;;;;22.86;31.83;101794.66;5008657;28;20069;-68
2021/06/03 07:45:16;;;;;;;4.00;2.30;;;;;;;23.35;30.92;101796.13;5009007;28;20327;-68
2021/06/03 07:47:42;;;;;;;5.30;2.33;;;;;;;23.39;29.54;101796.75;5009072;28;20140;-68
2021/06/03 07:50:11;;;;;;;4.85;2.17;;;;;;;23.99;30.01;101797.19;5007011;28;20086;-68
2021/06/03 07:52:37;;;;;;;6.57;2.60;;;;;;;26.66;26.52;101800.34;4994919;28;20038;-68
2021/06/03 07:55:06;;;;;;;4.47;2.22;;;;;;;29.00;22.26;101795.94;5010182;28;20549;-68
2021/06/03 07:57:31;;;;;;;6.05;2.15;;;;;;;29.49;21.46;101788.03;5009281;28;20092;-67
2021/06/03 07:59:57;;;;;;;6.18;4.40;;;;;;;28.64;21.45;101788.03;5014719;28;20434;-68
2021/06/03 08:02:22;;;;;;;5.28;2.35;;;;;;;28.16;22.63;101797.41;5024586;28;20038;-68
2021/06/03 08:04:48;;;;;;;4.22;2.13;;;;;;;27.84;22.88;101793.41;5008104;28;20033;-68
2021/06/03 08:07:16;;;;;;;9.05;2.20;;;;;;;28.78;22.42;101797.34;5008879;28;20049;-67
2021/06/03 08:09:44;;;;;;;5.30;2.40;;;;;;;29.03;21.39;101792.91;5023952;28;20037;-68
2021/06/03 08:12:10;;;;;;;3.22;1.90;;;;;;;29.10;22.13;101796.66;5023307;28;20125;-67
2021/06/03 08:14:35;;;;;;;4.30;2.25;;;;;;;29.18;22.71;101786.97;5006906;28;20120;-67
2021/06/03 08:17:01;;;;;;;4.18;2.90;;;;;;;28.87;22.40;101795.53;5004592;28;20069;-68
2021/06/03 08:19:27;;;;;;;6.38;2.15;;;;;;;29.34;22.67;101803.16;5006371;28;20510;-68
2021/06/03 08:21:52;;;;;;;3.35;1.63;;;;;;;29.23;22.02;101795.38;5006663;28;20120;-67
2021/06/03 08:24:18;;;;;;;7.80;1.95;;;;;;;29.85;22.13;101793.16;5007451;28;20434;-67
2021/06/03 08:26:49;;;;;;;8.23;2.55;;;;;;;30.29;20.43;101798.25;5007368;28;20095;-68
2021/06/03 08:29:15;;;;;;;2.97;2.70;;;;;;;29.82;22.36;101796.22;5006600;28;20026;-67
2021/06/03 08:31:40;;;;;;;4.72;2.38;;;;;;;30.42;20.64;101794.16;5007122;28;20037;-70
2021/06/03 08:34:06;;;;;;;5.22;3.10;;;;;;;29.77;21.12;101795.84;5005942;28;20038;-68
2021/06/03 08:36:32;;;;;;;3.55;2.55;;;;;;;29.70;22.57;101797.53;5006723;28;20116;-69
2021/06/03 08:38:57;;;;;;;7.20;3.42;;;;;;;30.02;21.73;101794.03;5006095;28;20117;-67
2021/06/03 08:41:25;;;;;;;6.10;2.95;;;;;;;30.44;21.99;101802.94;5006490;28;20034;-67
2021/06/03 08:43:51;;;;;;;3.38;3.15;;;;;;;29.55;22.21;101803.56;5002761;28;20528;-67
2021/06/03 08:46:16;;;;;;;3.50;3.20;;;;;;;29.06;22.08;101798.00;5005685;28;20041;-68
2021/06/03 08:48:42;;;;;;;8.23;3.97;;;;;;;29.18;22.23;101797.72;5004179;28;20034;-68
2021/06/03 08:51:07;;;;;;;3.45;3.15;;;;;;;30.31;21.75;101793.53;5006363;28;20224;-68
2021/06/03 08:53:34;;;;;;;4.10;3.50;;;;;;;30.79;21.60;101789.03;5005320;28;20036;-68
2021/06/03 08:56:14;;;;;;;3.15;2.65;;;;;;;31.19;20.74;101787.19;5011211;28;20119;-70
2021/06/03 08:58:41;;;;;;;4.30;2.03;;;;;;;30.77;21.39;101782.97;4990911;28;20525;-68
2021/06/03 09:01:07;;;;;;;5.30;3.03;;;;;;;31.13;20.16;101798.69;5005096;28;20395;-68
2021/06/03 09:03:34;;;;;;;5.13;2.45;;;;;;;32.11;19.98;101791.00;5005625;28;20092;-68
2021/06/03 09:06:00;;;;;;;3.88;2.17;;;;;;;32.06;19.46;101788.00;5006287;28;20034;-69
2021/06/03 09:08:37;;;;;;;4.78;2.50;;;;;;;31.11;20.29;101795.34;5005141;28;20402;-68
2021/06/03 09:11:20;;;;;;;3.33;2.47;;;;;;;30.24;21.92;101781.72;5005923;28;20030;-69
2021/06/03 09:13:52;;;;;;;4.78;2.15;;;;;;;29.21;21.96;101784.75;5004051;28;20041;-69
2021/06/03 09:16:26;;;;;;;2.13;1.92;;;;;;;28.20;23.59;101785.34;5005033;28;20120;-68
2021/06/03 09:19:03;;;;;;;3.28;2.60;;;;;;;28.33;24.08;101784.94;5004526;28;22455;-68
2021/06/03 09:21:46;;;;;;;5.80;2.72;;;;;;;27.91;25.35;101797.16;5006082;28;20414;-68
2021/06/03 09:24:15;;;;;;;4.72;2.38;;;;;;;27.88;24.96;101810.09;5004417;28;20033;-68
2021/06/03 09:26:55;;;;;;;3.70;2.95;;;;;;;27.23;25.68;101810.19;5005161;28;20285;-68
2021/06/03 09:29:28;;;;;;;4.80;2.85;;;;;;;27.47;25.30;101814.97;5004892;28;20041;-68
2021/06/03 09:32:03;;;;;;;7.80;3.00;;;;;;;26.85;26.81;101815.53;5005794;28;20061;-69
2021/06/03 09:34:28;;;;;;;6.68;3.30;;;;;;;25.55;27.98;101817.66;5004656;28;20606;-68
2021/06/03 09:36:58;;;;;;;5.25;3.08;;;;;;;25.76;28.75;101833.66;5004136;28;20025;-68
2021/06/03 09:39:30;;;;;;;3.63;2.90;;;;;;;25.83;28.58;101829.41;5021135;28;20037;-68
2021/06/03 09:41:55;;;;;;;;;;;;;;;25.01;29.87;101835.75;4994095;28;20041;-68
2021/06/03 09:44:27;;;;;;;5.05;4.03;;;;;;;25.18;29.28;101828.13;5005451;28;20330;-68
2021/06/03 09:46:56;;;;;;;4.80;2.83;;;;;;;25.25;29.74;101839.97;5003627;28;20121;-67
2021/06/03 09:49:24;;;;;;;3.05;2.28;;;;;;;24.65;30.40;101831.75;5004801;28;20026;-68
2021/06/03 09:51:55;;;;;;;4.80;2.92;;;;;;;24.89;30.71;101831.47;5005476;28;20120;-67
2021/06/03 09:54:22;;;;;;;3.95;2.83;;;;;;;24.56;31.30;101841.38;4982385;28;20034;-67
2021/06/03 09:56:52;;;;;;;3.53;3.15;;;;;;;24.88;30.73;101843.13;5005503;28;20239;-69
2021/06/03 09:59:31;;;;;;;6.60;3.95;;;;;;;24.97;30.22;101844.19;5019161;28;20034;-67
2021/06/03 10:01:59;;;;;;;8.27;4.00;;;;;;;24.81;31.05;101841.97;5003471;28;20336;-68
2021/06/03 10:04:43;;;;;;;6.75;3.05;;;;;;;24.33;31.84;101853.16;5004004;28;20068;-68
2021/06/03 10:07:11;;;;;;;3.72;3.15;;;;;;;24.39;32.69;101853.50;5002573;28;20314;-68
2021/06/03 10:09:42;;;;;;;7.68;2.78;;;;;;;24.54;32.55;101856.72;5003856;28;20077;-68
2021/06/03 10:12:27;;;;;;;7.47;3.20;;;;;;;24.67;31.95;101861.03;5002323;28;20395;-68
2021/06/03 10:14:56;;;;;;;5.28;3.40;;;;;;;24.84;32.35;101857.75;5004373;28;20572;-67
2021/06/03 10:17:29;;;;;;;4.03;3.65;;;;;;;24.94;32.63;101860.47;5019612;28;20294;-67
2021/06/03 10:20:01;;;;;;;6.97;2.97;;;;;;;25.02;31.57;101866.91;5003198;28;20030;-68
2021/06/03 10:22:27;;;;;;;3.97;3.03;;;;;;;25.34;31.48;101867.72;5004462;28;20056;-68
2021/06/03 10:24:58;;;;;;;6.75;3.78;;;;;;;25.85;30.21;101864.94;5005963;28;20048;-68
2021/06/03 10:27:51;;;;;;;11.32;3.45;;;;;;;26.63;28.16;101873.03;5004281;28;20487;-68
2021/06/03 10:30:28;;;;;;;7.38;4.38;;;;;;;26.68;28.90;101861.88;5018538;28;20037;-69
2021/06/03 10:32:56;;;;;;;7.38;4.82;;;;;;;26.81;27.79;101861.56;4993161;28;20096;-68
2021/06/03 10:35:25;;;;;;;5.57;4.78;;;;;;;26.68;28.27;101862.72;5005611;28;20025;-68
2021/06/03 10:37:51;;;;;;;5.97;4.22;;;;;;;26.87;28.75;101861.84;5006470;28;20306;-69
2021/06/03 10:40:24;;;;;;;9.68;5.47;;;;;;;26.76;29.32;101853.09;5004964;28;20127;-67
2021/06/03 10:42:51;;;;;;;8.48;5.40;;;;;;;26.68;29.29;101862.72;5004814;28;20033;-68
2021/06/03 10:45:19;;;;;;;9.43;4.90;;;;;;;26.28;28.86;101861.03;5004494;28;20414;-68
2021/06/03 10:47:44;;;;;;;6.00;4.35;;;;;;;26.39;29.53;101861.91;5004956;28;20048;-69
2021/06/03 10:50:22;;;;;;;5.90;5.30;;;;;;;26.10;30.16;101867.25;5002452;28;20126;-68
2021/06/03 10:52:49;;;;;;;10.38;6.47;;;;;;;25.51;30.71;101871.56;4997656;28;20030;-68
2021/06/03 10:55:29;;;;;;;9.98;5.20;;;;;;;25.03;30.98;101873.91;4998700;28;20518;-68
2021/06/03 10:58:01;;;;;;;12.68;5.05;;;;;;;25.16;31.37;101872.88;5005375;28;20446;-68
2021/06/03 11:00:36;;;;;;;8.23;4.57;;;;;;;25.50;31.70;101875.25;5003533;28;20316;-68
2021/06/03 11:03:05;;;;;;;10.70;6.15;;;;;;;25.54;30.74;101874.03;5017324;28;20072;-68
2021/06/03 11:05:39;;;;;;;10.40;6.68;;;;;;;25.04;30.83;101880.16;4996836;28;20037;-69
2021/06/03 11:08:43;;;;;;;6.22;5.60;;;;;;;25.25;30.73;101882.75;5003482;28;20034;-68
2021/06/03 11:11:09;;;;;;;9.77;5.90;;;;;;;24.77;32.07;101876.16;5002852;28;20383;-68
2021/06/03 11:13:35;;;;;;;11.30;6.22;;;;;;;24.71;32.53;101883.84;5003290;28;20056;-69
2021/06/03 11:16:05;;;;;;;12.20;7.47;;;;;;;24.50;32.46;101887.34;5001839;28;20022;-68
2021/06/03 11:18:40;;;;;;;8.25;5.63;;;;;;;23.87;34.40;101887.16;5003377;28;20074;-68
2021/06/03 11:21:06;;;;;;;6.97;6.28;;;;;;;24.17;33.95;101891.81;5003210;28;20045;-68
2021/06/03 11:23:34;;;;;;;9.00;6.47;;;;;;;24.09;33.96;101888.94;5003220;28;20034;-67
2021/06/03 11:26:06;;;;;;;8.80;6.22;;;;;;;24.15;34.53;101898.28;5003045;28;20465;-68
2021/06/03 11:28:32;;;;;;;10.38;6.90;;;;;;;23.86;34.58;101897.97;5001345;28;20054;-68
2021/06/03 11:31:21;;;;;;;9.35;6.20;;;;;;;23.34;35.56;101893.13;5003169;28;20033;-68